createdAt,value
2018-09-02T00:01:45.981Z,6.33
2018-09-02T00:04:50.176Z,7.83
2018-09-02T00:07:54.409Z,6.17
2018-09-02T00:10:58.629Z,5.73
2018-09-02T00:14:02.829Z,8.40
2018-09-02T00:17:07.040Z,6.47
2018-09-02T00:20:11.233Z,7.23
2018-09-02T00:23:15.480Z,7.00
2018-09-02T00:26:19.704Z,6.77
2018-09-02T00:29:23.892Z,7.77
2018-09-02T00:32:28.116Z,7.30
2018-09-02T00:35:32.338Z,9.40
2018-09-02T00:38:36.577Z,9.27
2018-09-02T00:41:40.942Z,6.17
2018-09-02T00:44:45.176Z,8.43
2018-09-02T00:47:49.374Z,7.10
2018-09-02T00:50:53.597Z,7.43
2018-09-02T00:53:57.780Z,7.13
2018-09-02T00:57:02.022Z,7.20
2018-09-02T01:00:06.657Z,8.73
2018-09-02T01:03:10.896Z,9.63
2018-09-02T01:06:15.098Z,9.73
2018-09-02T01:09:19.310Z,8.83
2018-09-02T01:12:23.540Z,8.30
2018-09-02T01:15:27.761Z,8.47
2018-09-02T01:18:31.956Z,11.37
2018-09-02T01:21:36.184Z,9.33
2018-09-02T01:24:40.382Z,8.80
2018-09-02T01:27:44.610Z,9.87
2018-09-02T01:30:48.820Z,9.67
2018-09-02T01:33:53.040Z,8.50
2018-09-02T01:36:57.250Z,8.63
2018-09-02T01:40:01.472Z,7.57
2018-09-02T01:43:05.857Z,9.43
2018-09-02T01:46:10.074Z,8.00
2018-09-02T01:49:14.281Z,8.13
2018-09-02T01:52:18.505Z,7.70
2018-09-02T01:55:22.750Z,7.93
2018-09-02T01:58:27.005Z,7.87
2018-09-02T02:01:31.213Z,8.60
2018-09-02T02:04:41.343Z,7.13
2018-09-02T02:07:45.529Z,7.73
2018-09-02T02:10:49.767Z,8.23
2018-09-02T02:13:53.996Z,8.10
2018-09-02T02:16:58.246Z,8.73
2018-09-02T02:20:02.445Z,8.20
2018-09-02T02:23:06.665Z,8.50
2018-09-02T02:26:10.869Z,8.67
2018-09-02T02:29:15.105Z,7.87
2018-09-02T02:32:19.310Z,9.57
2018-09-02T02:35:23.540Z,7.07
2018-09-02T02:38:27.753Z,7.47
2018-09-02T02:41:31.965Z,8.10
2018-09-02T02:44:36.161Z,7.13
2018-09-02T02:47:40.388Z,9.33
2018-09-02T02:50:44.593Z,8.53
2018-09-02T02:53:48.805Z,7.50
2018-09-02T02:56:53.053Z,10.17
2018-09-02T02:59:57.264Z,8.33
2018-09-02T03:03:01.518Z,10.83
2018-09-02T03:06:05.892Z,10.77
2018-09-02T03:09:11.340Z,8.97
2018-09-02T03:12:15.558Z,8.87
2018-09-02T03:15:19.849Z,9.50
2018-09-02T03:18:24.072Z,9.40
2018-09-02T03:21:28.301Z,8.70
2018-09-02T03:24:32.509Z,8.80
2018-09-02T03:27:36.781Z,7.73
2018-09-02T03:30:41.009Z,7.40
2018-09-02T03:33:45.216Z,8.03
2018-09-02T03:36:49.421Z,6.80
2018-09-02T03:39:53.689Z,6.87
2018-09-02T03:42:57.957Z,6.50
2018-09-02T03:46:02.173Z,9.27
2018-09-02T03:49:06.416Z,10.67
2018-09-02T03:52:10.616Z,11.87
2018-09-02T03:55:14.865Z,6.20
2018-09-02T03:58:19.066Z,6.50
2018-09-02T04:01:23.285Z,7.00
2018-09-02T04:04:27.770Z,6.90
2018-09-02T04:07:32.003Z,7.93
2018-09-02T04:10:36.205Z,7.73
2018-09-02T04:13:40.412Z,7.97
2018-09-02T04:16:44.620Z,8.80
2018-09-02T04:19:48.836Z,8.67
2018-09-02T04:22:53.037Z,8.70
2018-09-02T04:25:57.269Z,8.03
2018-09-02T04:29:01.494Z,7.40
2018-09-02T04:32:05.877Z,7.33
2018-09-02T04:35:10.079Z,8.47
2018-09-02T04:38:14.272Z,10.10
2018-09-02T04:41:18.506Z,7.70
2018-09-02T04:44:22.704Z,9.43
2018-09-02T04:47:26.923Z,9.50
2018-09-02T04:50:31.125Z,9.60
2018-09-02T04:53:35.409Z,11.43
2018-09-02T04:56:39.612Z,9.43
2018-09-02T04:59:43.833Z,7.57
2018-09-02T05:02:48.050Z,21.23
2018-09-02T05:05:52.273Z,7.57
2018-09-02T05:08:56.469Z,7.13
2018-09-02T05:12:00.681Z,7.10
2018-09-02T05:15:04.888Z,6.03
2018-09-02T05:18:09.221Z,5.87
2018-09-02T05:21:13.414Z,5.83
2018-09-02T05:24:17.654Z,5.93
2018-09-02T05:27:22.166Z,6.13
2018-09-02T05:30:26.366Z,5.80
2018-09-02T05:33:30.570Z,7.03
2018-09-02T05:36:36.082Z,6.37
2018-09-02T05:39:40.297Z,5.70
2018-09-02T05:42:44.508Z,5.60
2018-09-02T05:45:48.696Z,5.17
2018-09-02T05:48:53.290Z,6.20
2018-09-02T05:51:57.498Z,6.03
2018-09-02T05:55:01.685Z,6.40
2018-09-02T05:58:05.928Z,6.60
2018-09-02T06:01:10.161Z,6.93
2018-09-02T06:04:14.359Z,7.40
2018-09-02T06:07:18.589Z,8.40
2018-09-02T06:10:22.986Z,8.30
2018-09-02T06:13:27.204Z,11.77
2018-09-02T06:16:31.400Z,10.17
2018-09-02T06:19:35.630Z,9.53
2018-09-02T06:22:39.839Z,12.23
2018-09-02T06:25:44.032Z,12.23
2018-09-02T06:28:48.240Z,13.80
2018-09-02T06:31:52.473Z,12.07
2018-09-02T06:34:56.736Z,14.07
2018-09-02T06:38:00.966Z,12.13
2018-09-02T06:41:05.180Z,14.60
2018-09-02T06:44:09.896Z,10.37
2018-09-02T06:47:15.630Z,11.03
2018-09-02T06:50:21.497Z,9.67
2018-09-02T06:53:25.737Z,8.13
2018-09-02T06:56:30.714Z,9.10
2018-09-02T06:59:35.173Z,8.37
2018-09-02T07:02:39.413Z,9.63
2018-09-02T07:05:43.673Z,10.97
2018-09-02T07:08:47.938Z,9.90
2018-09-02T07:11:52.165Z,9.10
2018-09-02T07:14:56.378Z,6.97
2018-09-02T07:18:00.641Z,6.37
2018-09-02T07:21:04.880Z,9.57
2018-09-02T07:24:09.221Z,9.13
2018-09-02T07:27:13.432Z,5.47
2018-09-02T07:30:17.688Z,5.10
2018-09-02T07:33:21.895Z,5.70
2018-09-02T07:36:26.106Z,4.97
2018-09-02T07:39:30.333Z,5.00
2018-09-02T07:42:34.607Z,6.07
2018-09-02T07:45:38.806Z,4.47
2018-09-02T07:48:43.058Z,3.27
2018-09-02T07:51:47.285Z,3.13
2018-09-02T07:54:51.547Z,4.00
2018-09-02T07:57:55.810Z,2.73
2018-09-02T08:01:00.053Z,5.57
2018-09-02T08:04:04.310Z,5.10
2018-09-02T08:07:08.589Z,5.53
2018-09-02T08:10:12.885Z,5.83
2018-09-02T08:13:17.626Z,6.77
2018-09-02T08:16:21.857Z,5.13
2018-09-02T08:19:26.070Z,7.13
2018-09-02T08:22:31.105Z,3.43
2018-09-02T08:25:35.312Z,12.13
2018-09-02T08:28:39.542Z,13.90
2018-09-02T08:31:43.750Z,6.60
2018-09-02T08:34:47.993Z,5.67
2018-09-02T08:37:52.214Z,5.07
2018-09-02T08:40:56.437Z,4.47
2018-09-02T08:44:00.624Z,3.73
2018-09-02T08:47:04.925Z,3.97
2018-09-02T08:50:09.140Z,3.00
2018-09-02T08:53:13.352Z,3.90
2018-09-02T08:56:17.565Z,5.27
2018-09-02T08:59:21.789Z,4.23
2018-09-02T09:02:26.026Z,4.33
2018-09-02T09:05:30.301Z,4.37
2018-09-02T09:08:34.556Z,4.30
2018-09-02T09:11:38.704Z,4.87
2018-09-02T09:14:42.993Z,4.37
2018-09-02T09:17:47.221Z,4.50
2018-09-02T09:20:51.413Z,5.27
2018-09-02T09:23:55.767Z,3.67
2018-09-02T09:26:59.911Z,4.77
2018-09-02T09:30:04.173Z,3.47
2018-09-02T09:33:08.620Z,6.00
2018-09-02T09:36:12.864Z,5.33
2018-09-02T09:39:17.057Z,4.03
2018-09-02T09:42:21.264Z,2.37
2018-09-02T09:45:25.496Z,3.37
2018-09-02T09:48:29.716Z,3.83
2018-09-02T09:51:33.905Z,3.20
2018-09-02T09:54:38.174Z,4.43
2018-09-02T09:57:42.404Z,4.10
2018-09-02T10:00:50.757Z,5.50
2018-09-02T10:03:54.984Z,3.97
2018-09-02T10:06:59.196Z,4.87
2018-09-02T10:10:03.389Z,4.33
2018-09-02T10:13:07.584Z,5.73
2018-09-02T10:16:12.661Z,5.80
2018-09-02T10:19:16.861Z,5.13
2018-09-02T10:22:21.077Z,6.10
2018-09-02T10:25:25.333Z,4.73
2018-09-02T10:28:29.613Z,4.93
2018-09-02T10:31:33.889Z,4.67
2018-09-02T10:34:38.166Z,4.97
2018-09-02T10:37:42.701Z,4.80
2018-09-02T10:40:47.039Z,6.63
2018-09-02T10:43:51.452Z,5.83
2018-09-02T10:46:55.713Z,5.17
2018-09-02T10:49:59.976Z,4.13
2018-09-02T10:53:04.322Z,3.80
2018-09-02T10:56:08.601Z,5.33
2018-09-02T10:59:13.190Z,3.90
2018-09-02T11:02:17.803Z,3.67
2018-09-02T11:05:22.249Z,4.70
2018-09-02T11:08:27.192Z,4.80
2018-09-02T11:11:31.867Z,5.00
2018-09-02T11:14:36.076Z,5.07
2018-09-02T11:17:40.583Z,8.70
2018-09-02T11:20:44.828Z,5.13
2018-09-02T11:23:49.170Z,4.37
2018-09-02T11:26:53.482Z,7.03
2018-09-02T11:29:57.725Z,4.20
2018-09-02T11:33:02.036Z,5.27
2018-09-02T11:36:06.881Z,5.73
2018-09-02T11:39:11.674Z,6.03
2018-09-02T11:42:16.026Z,5.77
2018-09-02T11:45:20.667Z,3.40
2018-09-02T11:48:25.740Z,4.13
2018-09-02T11:51:30.146Z,2.77
2018-09-02T11:54:34.978Z,3.43
2018-09-02T11:57:39.785Z,3.73
2018-09-02T12:00:44.544Z,4.13
2018-09-02T12:03:48.960Z,4.80
2018-09-02T12:06:53.553Z,3.83
2018-09-02T12:10:14.990Z,4.87
2018-09-02T12:13:22.526Z,4.00
2018-09-02T12:16:58.897Z,3.47
2018-09-02T12:20:15.269Z,2.60
2018-09-02T12:23:19.510Z,2.97
2018-09-02T12:26:24.017Z,4.37
2018-09-02T12:29:28.313Z,3.97
2018-09-02T12:32:32.649Z,4.37
2018-09-02T12:35:36.977Z,3.27
2018-09-02T12:38:41.305Z,4.00
2018-09-02T12:41:45.607Z,3.33
2018-09-02T12:44:49.932Z,3.23
2018-09-02T12:47:54.707Z,3.47
2018-09-02T12:50:59.018Z,2.97
2018-09-02T12:54:03.384Z,3.27
2018-09-02T12:57:09.847Z,3.43
2018-09-02T13:00:14.749Z,3.13
2018-09-02T13:03:19.179Z,2.70
2018-09-02T13:06:24.090Z,3.47
2018-09-02T13:09:29.351Z,3.03
2018-09-02T13:16:25.809Z,4.43
2018-09-02T13:19:30.102Z,4.13
2018-09-02T13:22:34.349Z,3.57
2018-09-02T13:25:38.878Z,2.83
2018-09-02T13:28:43.141Z,2.80
2018-09-02T13:31:47.639Z,2.80
2018-09-02T13:34:52.080Z,3.43
2018-09-02T13:37:56.393Z,3.83
2018-09-02T13:41:00.670Z,3.53
2018-09-02T13:44:05.108Z,1.87
2018-09-02T13:47:09.521Z,2.17
2018-09-02T13:50:13.867Z,2.50
2018-09-02T13:53:18.175Z,1.97
2018-09-02T13:56:22.577Z,1.80
2018-09-02T13:59:26.977Z,2.37
2018-09-02T14:02:31.243Z,2.20
2018-09-02T14:05:35.581Z,1.80
2018-09-02T14:08:39.893Z,3.23
2018-09-02T14:11:44.219Z,4.63
2018-09-02T14:14:49.126Z,3.37
2018-09-02T14:17:53.597Z,4.13
2018-09-02T14:20:58.022Z,2.40
2018-09-02T14:24:02.357Z,2.00
2018-09-02T14:27:06.719Z,2.70
2018-09-02T14:30:11.005Z,1.90
2018-09-02T14:33:15.389Z,2.00
2018-09-02T14:36:19.706Z,2.47
2018-09-02T14:39:24.046Z,2.00
2018-09-02T14:42:28.493Z,2.10
2018-09-02T14:45:32.832Z,1.60
2018-09-02T14:48:37.330Z,1.93
2018-09-02T14:51:41.692Z,2.07
2018-09-02T14:54:46.117Z,1.97
2018-09-02T14:57:50.394Z,1.67
2018-09-02T15:00:54.684Z,2.03
2018-09-02T15:03:59.062Z,1.77
2018-09-02T15:07:03.414Z,2.53
2018-09-02T15:10:07.894Z,2.17
2018-09-02T15:13:12.210Z,2.37
2018-09-02T15:16:16.501Z,3.57
2018-09-02T15:19:20.812Z,2.50
2018-09-02T15:22:25.105Z,2.27
2018-09-02T15:25:29.461Z,3.90
2018-09-02T15:28:33.807Z,2.03
2018-09-02T15:31:38.096Z,4.27
2018-09-02T15:34:42.505Z,2.23
2018-09-02T15:37:46.804Z,3.70
2018-09-02T15:40:51.269Z,2.63
2018-09-02T15:43:55.750Z,2.97
2018-09-02T15:47:00.193Z,2.57
2018-09-02T15:50:04.762Z,4.27
2018-09-02T15:53:09.180Z,2.73
2018-09-02T15:56:13.640Z,5.30
2018-09-02T15:59:17.941Z,2.13
2018-09-02T16:02:22.242Z,3.43
2018-09-02T16:05:26.596Z,2.90
2018-09-02T16:08:31.079Z,3.50
2018-09-02T16:11:35.503Z,2.20
2018-09-02T16:14:39.950Z,2.30
2018-09-02T16:17:44.268Z,2.20
2018-09-02T16:20:48.700Z,5.77
2018-09-02T16:23:53.024Z,2.77
2018-09-02T16:26:57.392Z,2.10
2018-09-02T16:30:01.704Z,2.80
2018-09-02T16:33:06.119Z,5.73
2018-09-02T16:36:10.526Z,2.77
2018-09-02T16:39:25.858Z,3.50
2018-09-02T16:42:30.863Z,3.27
2018-09-02T16:45:35.208Z,3.53
2018-09-02T16:48:39.440Z,3.27
2018-09-02T16:51:43.694Z,2.87
2018-09-02T16:54:47.926Z,4.00
2018-09-02T16:57:52.235Z,4.70
2018-09-02T17:00:56.504Z,4.03
2018-09-02T17:04:03.585Z,6.63
2018-09-02T17:07:07.889Z,5.27
2018-09-02T17:10:12.111Z,5.87
2018-09-02T17:13:17.036Z,5.03
2018-09-02T17:16:21.297Z,4.23
2018-09-02T17:19:28.692Z,7.67
2018-09-02T17:22:33.025Z,4.50
2018-09-02T17:25:37.271Z,10.67
2018-09-02T17:28:41.534Z,5.80
2018-09-02T17:31:45.755Z,4.53
2018-09-02T17:34:50.102Z,4.73
2018-09-02T17:37:54.398Z,3.33
2018-09-02T17:40:58.665Z,6.03
2018-09-02T17:44:02.933Z,3.60
2018-09-02T17:47:07.224Z,4.53
2018-09-02T17:50:11.548Z,7.03
2018-09-02T17:53:15.876Z,4.97
2018-09-02T17:56:20.457Z,6.40
2018-09-02T17:59:24.709Z,3.63
2018-09-02T18:02:29.134Z,6.03
2018-09-02T18:05:33.336Z,3.90
2018-09-02T18:08:37.657Z,3.70
2018-09-02T18:11:42.046Z,8.50
2018-09-02T18:14:46.277Z,6.97
2018-09-02T18:17:50.581Z,8.23
2018-09-02T18:20:54.938Z,5.37
2018-09-02T18:23:59.349Z,4.20
2018-09-02T18:27:03.809Z,4.70
2018-09-02T18:30:08.269Z,5.40
2018-09-02T18:33:12.802Z,7.17
2018-09-02T18:36:17.254Z,7.70
2018-09-02T18:39:21.730Z,7.67
2018-09-02T18:42:26.241Z,6.00
2018-09-02T18:45:30.687Z,6.97
2018-09-02T18:48:34.971Z,6.90
2018-09-02T18:51:39.951Z,7.87
2018-09-02T18:54:44.326Z,7.10
2018-09-02T18:57:48.828Z,6.77
2018-09-02T19:02:01.186Z,9.37
2018-09-02T19:05:05.570Z,8.60
2018-09-02T19:08:09.821Z,6.87
2018-09-02T19:11:14.098Z,7.47
2018-09-02T19:14:18.406Z,7.37
2018-09-02T19:17:22.745Z,9.20
2018-09-02T19:20:27.080Z,10.83
2018-09-02T19:23:31.466Z,9.33
2018-09-02T19:26:35.816Z,7.10
2018-09-02T19:29:40.218Z,8.10
2018-09-02T19:32:44.515Z,8.07
2018-09-02T19:35:48.985Z,7.40
2018-09-02T19:38:53.313Z,8.23
2018-09-02T19:41:57.676Z,7.80
2018-09-02T19:45:01.933Z,7.93
2018-09-02T19:48:06.293Z,8.27
2018-09-02T19:51:10.570Z,9.27
2018-09-02T19:54:14.825Z,10.30
2018-09-02T19:57:19.131Z,6.63
2018-09-02T20:00:24.360Z,11.20
2018-09-02T20:03:37.705Z,8.60
2018-09-02T20:06:42.021Z,9.10
2018-09-02T20:09:46.354Z,8.60
2018-09-02T20:12:50.774Z,9.77
2018-09-02T20:15:55.084Z,7.57
2018-09-02T20:18:59.526Z,7.70
2018-09-02T20:22:03.762Z,11.77
2018-09-02T20:25:08.055Z,10.57
2018-09-02T20:28:12.377Z,10.97
2018-09-02T20:31:16.766Z,10.07
2018-09-02T20:34:21.130Z,7.93
2018-09-02T20:37:25.433Z,11.70
2018-09-02T20:40:29.721Z,7.70
2018-09-02T20:43:34.037Z,8.00
2018-09-02T20:46:38.314Z,7.50
2018-09-02T20:49:42.588Z,8.47
2018-09-02T20:52:46.872Z,7.70
2018-09-02T20:55:51.199Z,8.60
2018-09-02T20:58:55.496Z,8.73
2018-09-02T21:01:59.899Z,11.40
2018-09-02T21:05:04.269Z,9.67
2018-09-02T21:08:08.457Z,9.40
2018-09-02T21:11:12.749Z,7.80
2018-09-02T21:14:17.062Z,8.53
2018-09-02T21:17:21.321Z,8.53
2018-09-02T21:20:25.555Z,9.03
2018-09-02T21:23:29.789Z,7.07
2018-09-02T21:26:33.996Z,7.60
2018-09-02T21:29:38.265Z,7.23
2018-09-02T21:32:42.477Z,7.27
2018-09-02T21:35:46.734Z,9.47
2018-09-02T21:38:50.987Z,8.40
2018-09-02T21:41:55.201Z,10.47
2018-09-02T21:44:59.424Z,10.20
2018-09-02T21:48:03.669Z,8.70
2018-09-02T21:51:07.900Z,9.83
2018-09-02T21:54:12.127Z,8.27
2018-09-02T21:57:16.332Z,8.83
2018-09-02T22:00:20.561Z,11.53
2018-09-02T22:03:24.797Z,10.10
2018-09-02T22:06:29.047Z,9.60
2018-09-02T22:09:33.782Z,10.73
2018-09-02T22:12:38.004Z,11.37
2018-09-02T22:15:42.232Z,11.73
2018-09-02T22:18:46.488Z,11.33
2018-09-02T22:21:50.721Z,11.40
2018-09-02T22:24:55.038Z,11.87
2018-09-02T22:27:59.269Z,13.63
2018-09-02T22:31:03.524Z,15.13
2018-09-02T22:34:07.729Z,14.93
2018-09-02T22:37:12.001Z,14.07
2018-09-02T22:40:16.225Z,16.40
2018-09-02T22:43:20.589Z,16.17
2018-09-02T22:46:24.853Z,17.83
2018-09-02T22:49:29.080Z,15.93
2018-09-02T22:52:33.315Z,17.83
2018-09-02T22:55:37.545Z,15.43
2018-09-02T22:58:41.800Z,13.23
2018-09-02T23:01:46.050Z,14.87
2018-09-02T23:04:50.311Z,15.77
2018-09-02T23:07:54.532Z,16.50
2018-09-02T23:10:58.822Z,17.37
2018-09-02T23:14:03.074Z,19.57
2018-09-02T23:17:07.313Z,17.37
2018-09-02T23:20:11.517Z,21.03
2018-09-02T23:23:15.748Z,16.40
2018-09-02T23:26:20.013Z,17.17
2018-09-02T23:29:24.296Z,16.10
2018-09-02T23:32:28.554Z,16.97
2018-09-02T23:35:32.813Z,16.17
2018-09-02T23:38:37.092Z,18.90
2018-09-02T23:41:41.422Z,17.00
2018-09-02T23:44:45.671Z,17.10
2018-09-02T23:47:49.952Z,17.37
2018-09-02T23:50:54.241Z,15.07
2018-09-02T23:53:58.598Z,18.20
2018-09-02T23:57:02.820Z,17.83
